Raton, NM

10:31 PM MST on November 23, 2014 (GMT -0700)
Angel Fire | Change Station
CLOSE
Current Station
Airport
Location: Angel Fire,
Elevation: 8379 ft
Nearby Weather Stations

Elev 8379 ft 36.42 °N, 105.29 °W | Updated 16 minutes ago

Partly Cloudy
Partly Cloudy
10 °F
Feels Like 10 °F
N
0
Wind Variable Wind from North

Today
High -- | Low -- °F
--% Chance of Precip.
Yesterday
High -- | Low -- °F
Precip. -- in
6:45 AM 4:44 PM
Waxing Crescent, 4% visible
Pressure 29.95 in
Visibility 10.0 miles
Clouds Clear
Dew Point 2 °F
Humidity 70%
Rainfall 0.06 in
Snow Depth Not available.
UV 0 out of 12
Pollen .10 out of 12
Air Quality Not available.
Flu Activity Not available.
METAR KAXX 240515Z AUTO 00000KT 10SM CLR M12/M17 A2995 RMK AO2 T11231168

More Conditions Fewer Conditions

Pressure 29.95 in
Visibility 10.0 miles
Clouds Clear
Dew Point 2 °F
Humidity 70%
Rainfall 0.06 in
Snow Depth Not available.
UV 0 out of 12
Pollen .10 out of 12
Air Quality Not available.
Flu Activity Not available.
METAR KAXX 240515Z AUTO 00000KT 10SM CLR M12/M17 A2995 RMK AO2 T11231168

More Conditions Fewer Conditions

Nowcast | as of 9:35 PM MST on November 23, 2014

Snow showers will continue to slowly diminish through the rest of the evening across the Sangre de Cristos east and southeast through Colfax County south to the general vicinity of Guadalupe County. By midnight only a few flurries should be all that remains. Only a trace to perhaps around an inch additional accumulation is expected across these areas through midnight. Northwest wind gusts may still reach 25 to nearly 40 mph on occasion mainly across the higher peaks and ridges...continuing some occasional blowing and drifting snow. Visibilities may still drop to a mile or two...perhaps briefly a bit less...in any lingering heavier snow showers in the higher terrain with snow covered...slippery Road conditions continuing. Localized fog patches may also drop visibilities to near a mile or less in spots across this area...but this should be the exception rather than the rule.

×

10-Day Weather Forecast

Almanac

Astronomy

Nov. 23, 2014 Rise Set
Actual Time
Civil Twilight
Nautical Twilight
Astronomical Twilight
Moon
Length of Visible Light
Length of Day
Tomorrow will be .
, % of the Moon is Illuminated

Today's Extremes

State Highs State Lows

Community

WunderPhotos

Upload Photos

1,773,279 photos uploaded!

WunderBlogs® & News

Nearby

Air Quality

  Air Quality AQ Index Pollutant
Not available.

Snow Depth

Station Depth Elevation

Earthquake Activity

City Distance Mag. Time & Date
Minimum magnitude displayed is 2.5.

Coastal Water Temperatures

Place Temperature

Nearby Weather Stations